Terminal Aerodrome Forecast
Issued by NWS

Home | Current Version | Previous Version | Text Only | Print | Product List | Glossary On
Versions: 1 2 3 4 5 6 7 8 9 10 11 12 13 14 15 16 17
000
FTAK31 PAJN 251700
TAFAYA
TAF
PAYA 251737Z 2518/2618 VRB03KT P6SM SCT035 BKN100
     FM260300 00000KT P6SM VCSH BKN050 OVC100
     FM261000 08006KT P6SM VCSH BKN040 OVC080
      AMD LTD TO CLD VIS AND WIND 2601/2610=

USA.gov is the U.S. government's official web portal to all federal, state and local government web resources and services.